Time;durP1;ratioP1;P1;durP2;ratioP2;P2;SDS_P1;SDS_P2;PMS_P1;PMS_P2;Temp;Humidity;BMP_temperature;BMP_pressure;BME280_temperature;BME280_humidity;BME280_pressure;Samples;Min_cycle;Max_cycle;Signal;HPM_P1;HPM_P2
2022/06/27 00:01:57;;;;;;;7.30;5.95;;;;;;;20.40;72.03;101964.34;5055574;28;20036;-70
2022/06/27 00:04:22;;;;;;;6.82;6.22;;;;;;;20.70;72.76;102013.66;5055524;28;20056;-67
2022/06/27 00:06:49;;;;;;;6.78;6.03;;;;;;;20.63;72.79;102004.66;5055659;28;20099;-71
2022/06/27 00:09:14;;;;;;;6.25;5.60;;;;;;;20.69;73.25;102022.81;5055442;28;20503;-69
2022/06/27 00:11:40;;;;;;;8.30;6.30;;;;;;;20.67;73.69;102027.59;5055385;28;20123;-68
2022/06/27 00:14:06;;;;;;;8.80;6.25;;;;;;;20.67;73.70;102030.28;5055676;28;20040;-69
2022/06/27 00:16:32;;;;;;;6.95;6.25;;;;;;;20.62;74.36;102019.22;5055459;28;20036;-72
2022/06/27 00:18:57;;;;;;;7.35;6.65;;;;;;;20.65;74.96;102032.38;5055451;28;20068;-70
2022/06/27 00:21:23;;;;;;;9.05;7.70;;;;;;;20.60;75.23;102015.88;5055681;28;20041;-69
2022/06/27 00:23:48;;;;;;;8.27;6.80;;;;;;;20.56;76.07;102009.19;5055712;28;20036;-68
2022/06/27 00:26:14;;;;;;;7.70;7.00;;;;;;;20.60;76.57;102021.31;5054103;28;20029;-70
2022/06/27 00:28:39;;;;;;;9.07;7.00;;;;;;;20.62;77.27;102024.63;5054270;28;20040;-68
2022/06/27 00:31:05;;;;;;;8.30;7.45;;;;;;;20.54;77.24;102016.69;5055088;28;20400;-67
2022/06/27 00:33:30;;;;;;;7.05;6.45;;;;;;;20.57;77.33;102027.13;5055410;28;20045;-70
2022/06/27 00:35:56;;;;;;;14.98;7.47;;;;;;;20.44;77.80;102005.34;5055142;28;20072;-67
2022/06/27 00:38:21;;;;;;;8.20;7.40;;;;;;;20.57;77.94;102032.53;5055211;28;20041;-72
2022/06/27 00:40:47;;;;;;;8.52;7.18;;;;;;;20.53;78.50;102039.38;5055108;28;20120;-66
2022/06/27 00:43:12;;;;;;;8.07;7.25;;;;;;;20.44;78.86;102013.47;5055007;28;20033;-67
2022/06/27 00:45:38;;;;;;;8.43;6.97;;;;;;;20.56;78.82;102038.13;5055680;28;20556;-68
2022/06/27 00:48:05;;;;;;;8.65;7.10;;;;;;;20.59;79.42;102038.56;5059626;28;20049;-66
2022/06/27 00:50:30;;;;;;;8.27;7.47;;;;;;;20.59;79.82;102035.88;5060264;28;20052;-68
2022/06/27 00:52:57;;;;;;;8.48;7.68;;;;;;;20.58;79.95;102038.78;5054849;28;20041;-67
2022/06/27 00:55:23;;;;;;;8.18;7.38;;;;;;;20.47;80.50;102023.91;5054798;28;20041;-72
2022/06/27 00:57:50;;;;;;;10.07;8.02;;;;;;;20.52;81.54;102040.38;5054559;28;20125;-67
2022/06/27 01:00:16;;;;;;;11.00;8.10;;;;;;;20.51;82.36;102044.13;5053237;28;20033;-69
2022/06/27 01:02:42;;;;;;;10.75;9.52;;;;;;;20.36;83.60;102011.72;5054245;28;20032;-66
2022/06/27 01:05:11;;;;;;;10.38;9.30;;;;;;;20.51;83.58;102036.00;5053791;28;20063;-70
2022/06/27 01:07:38;;;;;;;9.95;9.05;;;;;;;20.48;83.61;102043.69;5054214;28;20063;-67
2022/06/27 01:10:05;;;;;;;11.50;10.43;;;;;;;20.46;84.49;102040.34;5054271;28;20519;-70
2022/06/27 01:12:32;;;;;;;10.77;9.77;;;;;;;20.44;84.55;102039.69;5054468;28;20037;-68
2022/06/27 01:14:59;;;;;;;10.43;9.52;;;;;;;20.41;85.47;102043.63;5054234;28;20071;-71
2022/06/27 01:17:25;;;;;;;12.00;10.38;;;;;;;20.39;85.73;102032.13;5035994;28;20041;-68
2022/06/27 01:19:52;;;;;;;11.48;10.40;;;;;;;20.35;86.00;102022.75;5054291;28;20033;-69
2022/06/27 01:22:18;;;;;;;10.90;9.63;;;;;;;20.03;85.54;101968.19;5052855;28;20032;-72
2022/06/27 01:24:44;;;;;;;11.65;10.45;;;;;;;20.47;86.41;102050.97;5052940;28;20032;-66
2022/06/27 01:27:10;;;;;;;10.93;9.82;;;;;;;20.44;86.46;102043.25;5053980;28;20036;-68
2022/06/27 01:29:37;;;;;;;12.50;11.45;;;;;;;20.45;86.85;102050.31;5052752;28;20411;-67
2022/06/27 01:32:04;;;;;;;12.55;10.93;;;;;;;20.20;86.86;101997.63;5052674;28;20029;-70
2022/06/27 01:34:30;;;;;;;11.73;10.60;;;;;;;20.47;87.02;102050.97;5054122;28;20041;-71
2022/06/27 01:36:56;;;;;;;12.15;10.95;;;;;;;20.45;87.08;102046.78;5054207;28;20033;-69
2022/06/27 01:39:24;;;;;;;11.43;10.43;;;;;;;20.48;86.99;102049.09;5053776;28;20033;-68
2022/06/27 01:41:53;;;;;;;13.05;11.88;;;;;;;20.50;87.18;102057.84;5053483;28;20040;-69
2022/06/27 01:44:20;;;;;;;12.20;11.00;;;;;;;20.58;86.90;102055.84;5035654;28;20094;-71
2022/06/27 01:46:54;;;;;;;12.52;11.43;;;;;;;20.59;86.49;102060.22;5053935;28;20111;-68
2022/06/27 01:49:20;;;;;;;12.52;11.27;;;;;;;20.51;86.03;102043.28;5052779;28;20048;-73
2022/06/27 01:51:48;;;;;;;12.15;10.90;;;;;;;20.43;86.58;102046.97;5052881;28;20171;-67
2022/06/27 01:54:16;;;;;;;12.75;10.13;;;;;;;20.54;86.23;102059.16;5053767;28;20045;-67
2022/06/27 01:56:44;;;;;;;;;;;;;;;20.59;85.53;102062.09;5054284;28;20041;-70
2022/06/27 01:59:11;;;;;;;10.98;9.70;;;;;;;19.97;85.51;101960.88;5053639;28;19920;-70
2022/06/27 02:01:39;;;;;;;11.00;9.90;;;;;;;20.61;85.62;102052.75;5053379;28;20101;-70
2022/06/27 02:04:05;;;;;;;;;;;;;;;20.64;85.00;102051.50;5052380;28;20044;-68
2022/06/27 02:06:34;;;;;;;10.82;9.73;;;;;;;20.62;85.24;102065.25;5052158;28;20421;-67
2022/06/27 02:09:04;;;;;;;10.52;8.85;;;;;;;20.48;85.04;102033.69;5053451;28;20528;-70
2022/06/27 02:11:32;;;;;;;11.52;9.98;;;;;;;20.64;84.75;102060.47;5053519;28;20057;-71
2022/06/27 02:13:58;;;;;;;10.43;9.43;;;;;;;20.66;85.29;102061.09;5052077;28;20042;-69
2022/06/27 02:16:44;;;;;;;10.55;9.48;;;;;;;20.63;85.15;102056.09;5052299;28;20083;-67
2022/06/27 02:19:19;;;;;;;11.25;10.15;;;;;;;20.61;85.33;102043.78;5035259;28;20492;-69
2022/06/27 02:21:46;;;;;;;8.98;8.13;;;;;;;20.51;85.33;102027.88;5053251;28;20041;-68
2022/06/27 02:24:12;;;;;;;10.40;9.23;;;;;;;20.78;85.27;102060.53;5053072;28;20037;-67
2022/06/27 02:26:38;;;;;;;11.25;8.90;;;;;;;20.22;85.18;101963.94;5053055;28;20033;-70
2022/06/27 02:29:05;;;;;;;10.93;9.30;;;;;;;20.83;85.38;102060.81;5053018;28;20041;-68
2022/06/27 02:31:30;;;;;;;10.57;9.40;;;;;;;20.85;85.16;102061.44;5051881;28;20044;-66
2022/06/27 02:33:57;;;;;;;12.85;9.38;;;;;;;20.78;85.39;102044.28;5052997;28;20037;-68
2022/06/27 02:36:36;;;;;;;11.02;9.13;;;;;;;20.85;85.10;102050.63;5056567;28;20120;-70
2022/06/27 02:39:03;;;;;;;9.63;8.68;;;;;;;20.91;84.66;102061.47;5056143;28;20519;-67
2022/06/27 02:41:33;;;;;;;9.15;8.23;;;;;;;20.98;84.93;102072.34;5053803;28;20045;-71
2022/06/27 02:44:02;;;;;;;10.18;9.23;;;;;;;20.86;85.36;102045.00;5053073;28;20041;-70
2022/06/27 02:46:28;;;;;;;12.55;8.57;;;;;;;21.07;85.13;102071.13;5052687;28;20048;-68
2022/06/27 02:48:54;;;;;;;9.15;8.07;;;;;;;21.09;85.34;102062.81;5034496;28;20086;-67
2022/06/27 02:51:22;;;;;;;11.05;8.23;;;;;;;21.14;84.50;102058.47;5051471;28;20037;-67
2022/06/27 02:53:54;;;;;;;;;;;;;;;21.90;84.05;102071.91;5052811;28;20131;-66
2022/06/27 02:56:25;;;;;;;9.07;8.18;;;;;;;23.95;75.44;102068.78;5051214;28;20396;-68
2022/06/27 02:59:06;;;;;;;9.57;7.50;;;;;;;25.99;67.53;102046.69;5052538;28;20068;-70
2022/06/27 03:01:34;;;;;;;6.80;6.20;;;;;;;27.60;61.45;102055.25;5052308;28;20423;-70
2022/06/27 03:04:01;;;;;;;8.02;7.22;;;;;;;28.56;58.18;102040.50;5052432;28;20079;-67
2022/06/27 03:06:29;;;;;;;7.65;5.95;;;;;;;29.27;55.77;102035.16;5052207;28;20148;-70
2022/06/27 03:08:55;;;;;;;9.82;5.95;;;;;;;30.12;53.52;102058.31;5052649;28;20043;-69
2022/06/27 03:11:23;;;;;;;6.40;5.57;;;;;;;30.38;52.71;102064.84;5056318;28;20508;-65
2022/06/27 03:13:50;;;;;;;6.32;5.28;;;;;;;30.84;50.57;102065.97;5064564;28;20072;-66
2022/06/27 03:16:16;;;;;;;10.57;7.80;;;;;;;30.68;49.82;102023.84;5064548;28;20037;-67
2022/06/27 03:18:42;;;;;;;6.90;6.30;;;;;;;31.07;48.99;102065.53;5057624;28;20025;-68
2022/06/27 03:21:08;;;;;;;6.03;5.53;;;;;;;31.36;48.26;102051.38;5052701;28;20040;-69
2022/06/27 03:23:33;;;;;;;6.63;5.13;;;;;;;31.65;47.16;102055.28;5050962;28;20556;-71
2022/06/27 03:25:59;;;;;;;8.43;5.70;;;;;;;31.79;46.92;102060.28;5052420;28;20044;-68
2022/06/27 03:28:25;;;;;;;6.45;5.88;;;;;;;31.77;46.69;102068.00;5051277;28;20127;-68
2022/06/27 03:30:51;;;;;;;5.82;5.32;;;;;;;31.91;46.18;102060.88;5055256;28;20071;-65
2022/06/27 03:33:16;;;;;;;9.48;4.95;;;;;;;31.97;45.73;102068.03;5063617;28;20060;-65
2022/06/27 03:35:42;;;;;;;5.05;4.55;;;;;;;31.95;45.44;102061.97;5063878;28;20029;-65
2022/06/27 03:38:09;;;;;;;5.05;4.60;;;;;;;32.09;45.35;102057.56;5060186;28;20082;-68
2022/06/27 03:40:34;;;;;;;5.88;4.63;;;;;;;32.28;44.55;102066.97;5052203;28;20037;-69
2022/06/27 03:43:00;;;;;;;5.43;4.93;;;;;;;32.33;44.24;102066.94;5050741;28;20040;-70
2022/06/27 03:45:26;;;;;;;9.00;5.03;;;;;;;32.40;43.74;102074.13;5052350;28;20044;-69
2022/06/27 03:48:00;;;;;;;5.55;5.05;;;;;;;32.22;44.04;102010.16;5052261;28;20037;-70
2022/06/27 03:50:26;;;;;;;5.65;4.78;;;;;;;32.75;42.85;102054.75;5052054;28;20044;-67
2022/06/27 03:52:53;;;;;;;5.38;4.88;;;;;;;32.96;42.79;102066.53;5050643;28;20033;-69
2022/06/27 03:55:19;;;;;;;8.38;5.15;;;;;;;33.10;42.44;102064.84;5052156;28;20040;-67
2022/06/27 03:57:51;;;;;;;5.18;4.35;;;;;;;33.08;43.00;102055.22;5052032;28;20405;-65
2022/06/27 04:00:21;;;;;;;4.90;4.50;;;;;;;32.75;43.44;102046.47;5051800;28;20378;-68
2022/06/27 04:02:46;;;;;;;7.93;5.90;;;;;;;32.54;42.83;102017.28;5051769;28;20120;-68
2022/06/27 04:05:12;;;;;;;5.30;4.55;;;;;;;32.83;43.20;102042.34;5050546;28;20449;-68
2022/06/27 04:07:39;;;;;;;7.20;5.10;;;;;;;32.73;43.14;102048.69;5050103;28;20057;-68
2022/06/27 04:10:06;;;;;;;7.90;5.88;;;;;;;32.95;42.83;102067.66;5051564;28;20064;-69
2022/06/27 04:12:32;;;;;;;6.55;5.63;;;;;;;32.83;42.77;102054.19;5050336;28;20040;-67
2022/06/27 04:14:58;;;;;;;6.20;5.60;;;;;;;32.95;42.58;102057.44;5052828;28;20041;-69
2022/06/27 04:17:24;;;;;;;6.00;5.35;;;;;;;33.01;42.53;102072.06;5054729;28;20500;-66
2022/06/27 04:19:49;;;;;;;6.65;6.05;;;;;;;33.11;42.19;102065.69;5058831;28;20466;-66
2022/06/27 04:22:15;;;;;;;6.35;5.70;;;;;;;33.06;42.38;102062.94;5059140;28;20040;-66
2022/06/27 04:24:41;;;;;;;6.90;5.35;;;;;;;32.94;42.17;102061.31;5062906;28;20450;-67
2022/06/27 04:27:07;;;;;;;5.68;5.10;;;;;;;33.01;41.80;102071.25;5062070;28;20037;-66
2022/06/27 04:29:32;;;;;;;6.40;5.80;;;;;;;32.90;42.03;102060.22;5044512;28;20531;-68
2022/06/27 04:31:58;;;;;;;11.32;5.53;;;;;;;32.91;42.44;102072.91;5055055;28;20037;-68
2022/06/27 04:34:24;;;;;;;6.00;5.18;;;;;;;32.84;42.60;102060.53;5055065;28;20064;-70
2022/06/27 04:36:50;;;;;;;8.88;4.80;;;;;;;33.03;42.42;102064.34;5054975;28;20108;-65
2022/06/27 04:39:19;;;;;;;11.02;6.57;;;;;;;33.10;42.54;102055.75;5054688;28;20116;-69
2022/06/27 04:41:45;;;;;;;6.63;5.60;;;;;;;33.27;42.02;102067.28;5054851;28;20041;-71
2022/06/27 04:44:11;;;;;;;6.35;4.93;;;;;;;33.18;42.21;102074.47;5055154;28;20183;-69
2022/06/27 04:46:41;;;;;;;6.65;5.10;;;;;;;33.30;41.90;102068.63;5054993;28;20041;-67
2022/06/27 04:49:07;;;;;;;8.82;6.38;;;;;;;33.20;41.53;102056.50;5054896;28;20032;-70
2022/06/27 04:51:33;;;;;;;6.07;5.20;;;;;;;33.16;42.20;102062.88;5054804;28;20025;-70
2022/06/27 04:53:58;;;;;;;7.03;5.47;;;;;;;33.20;41.04;102063.97;5053631;28;20124;-66
2022/06/27 04:56:25;;;;;;;8.20;5.72;;;;;;;33.05;40.67;102028.19;5053439;28;20468;-69
2022/06/27 04:58:51;;;;;;;13.73;5.63;;;;;;;33.47;40.29;102064.41;5055064;28;20120;-70
2022/06/27 05:01:19;;;;;;;7.47;5.80;;;;;;;33.65;39.61;102060.16;5053631;28;20075;-69
2022/06/27 05:03:44;;;;;;;5.80;5.30;;;;;;;33.52;39.61;102056.09;5053542;28;20634;-69
2022/06/27 05:06:10;;;;;;;11.15;5.95;;;;;;;33.36;39.36;102057.31;5054714;28;20033;-69
2022/06/27 05:08:39;;;;;;;6.10;5.47;;;;;;;33.36;39.47;102060.06;5054279;28;20045;-68
2022/06/27 05:11:05;;;;;;;9.25;6.85;;;;;;;33.20;39.11;102052.94;5054232;28;20044;-70
2022/06/27 05:13:31;;;;;;;7.95;6.10;;;;;;;33.35;38.76;102069.47;5052878;28;20033;-69
2022/06/27 05:15:58;;;;;;;10.43;6.70;;;;;;;33.21;39.21;102060.94;5053178;28;20509;-70
2022/06/27 05:18:24;;;;;;;11.00;7.27;;;;;;;33.17;39.49;102070.06;5052840;28;20044;-66
2022/06/27 05:20:50;;;;;;;8.48;7.00;;;;;;;32.90;40.15;102060.22;5054275;28;20444;-69
2022/06/27 05:23:16;;;;;;;6.68;5.97;;;;;;;32.39;41.09;102050.41;5060475;28;20041;-67
2022/06/27 05:25:41;;;;;;;6.40;5.72;;;;;;;31.87;42.80;102065.28;5060683;28;20052;-70
2022/06/27 05:28:07;;;;;;;7.18;6.00;;;;;;;31.05;44.42;102065.00;5062029;28;20110;-67
2022/06/27 05:30:33;;;;;;;10.55;6.13;;;;;;;29.78;48.34;102061.28;5061953;28;20033;-64
2022/06/27 05:33:00;;;;;;;8.73;6.32;;;;;;;28.76;52.44;102058.31;5044374;28;20044;-66
2022/06/27 05:35:26;;;;;;;9.68;5.53;;;;;;;27.96;54.95;102057.59;5060433;28;20528;-68
2022/06/27 05:37:54;;;;;;;7.63;5.75;;;;;;;27.58;56.46;102066.44;5061801;28;20033;-67
2022/06/27 05:40:21;;;;;;;7.72;5.97;;;;;;;27.32;57.06;102056.91;5061529;28;20025;-66
2022/06/27 05:42:48;;;;;;;5.97;5.40;;;;;;;27.08;57.85;102049.84;5062638;28;20056;-69
2022/06/27 05:45:14;;;;;;;7.57;6.32;;;;;;;26.81;57.61;102036.66;5062311;28;20544;-68
2022/06/27 05:47:40;;;;;;;7.18;6.20;;;;;;;26.90;58.03;102059.00;5044863;28;20118;-68
2022/06/27 05:50:07;;;;;;;7.82;5.82;;;;;;;26.80;59.25;102058.75;5059475;28;20041;-68
2022/06/27 05:52:33;;;;;;;9.93;6.38;;;;;;;26.57;59.31;102043.19;5054878;28;20053;-67
2022/06/27 05:54:59;;;;;;;6.70;6.10;;;;;;;26.60;59.42;102050.94;5053269;28;20037;-67
2022/06/27 05:57:26;;;;;;;11.43;6.40;;;;;;;26.31;59.69;102017.19;5054207;28;20511;-71
2022/06/27 05:59:55;;;;;;;8.50;6.85;;;;;;;26.36;60.25;102041.09;5054108;28;20657;-70
2022/06/27 06:02:23;;;;;;;9.93;6.40;;;;;;;26.42;59.74;102051.06;5054186;28;20045;-68
2022/06/27 06:04:50;;;;;;;10.40;6.55;;;;;;;26.47;59.56;102056.63;5054171;28;20409;-70
2022/06/27 06:07:16;;;;;;;7.65;5.97;;;;;;;26.48;59.01;102059.13;5053959;28;20052;-72
2022/06/27 06:09:43;;;;;;;11.55;5.80;;;;;;;26.30;60.13;102020.97;5052778;28;20519;-68
2022/06/27 06:12:11;;;;;;;8.40;5.80;;;;;;;26.55;59.76;102069.94;5053994;28;20041;-70
2022/06/27 06:14:38;;;;;;;10.37;6.53;;;;;;;26.52;60.09;102063.03;5053855;28;20095;-70
2022/06/27 06:17:04;;;;;;;7.45;5.65;;;;;;;26.50;60.37;102067.91;5053523;28;20037;-67
2022/06/27 06:19:31;;;;;;;9.50;5.78;;;;;;;26.44;61.00;102076.22;5052491;28;20036;-69
2022/06/27 06:21:57;;;;;;;10.50;6.07;;;;;;;26.45;61.70;102078.72;5053519;28;20071;-70
2022/06/27 06:24:24;;;;;;;10.50;6.28;;;;;;;26.43;60.89;102063.66;5053781;28;20029;-70
2022/06/27 06:26:56;;;;;;;10.50;6.28;;;;;;;26.41;60.63;102060.31;5054610;28;20075;-69
2022/06/27 06:29:22;;;;;;;12.77;6.25;;;;;;;26.49;60.75;102068.16;5054778;28;20037;-69
2022/06/27 06:31:48;;;;;;;6.80;6.10;;;;;;;26.24;61.34;102028.19;5053606;28;20029;-68
2022/06/27 06:34:16;;;;;;;13.52;10.63;;;;;;;26.52;60.23;102063.03;5052697;28;20039;-68
2022/06/27 06:36:43;;;;;;;9.25;5.50;;;;;;;26.55;60.21;102069.94;5052292;28;20412;-69
2022/06/27 06:39:10;;;;;;;14.00;6.72;;;;;;;26.42;60.15;102046.44;5051525;28;20479;-66
2022/06/27 06:41:36;;;;;;;17.52;6.53;;;;;;;26.49;60.38;102065.44;5052761;28;20037;-70
2022/06/27 06:44:05;;;;;;;11.30;6.65;;;;;;;26.49;60.83;102051.75;5052660;28;20033;-70
2022/06/27 06:46:32;;;;;;;11.95;7.57;;;;;;;26.53;60.38;102063.88;5052783;28;20129;-72
2022/06/27 06:49:05;;;;;;;15.97;7.53;;;;;;;26.58;60.38;102061.25;5053066;28;20374;-70
2022/06/27 06:51:36;;;;;;;15.73;8.32;;;;;;;26.58;59.40;102065.88;5051353;28;20028;-71
2022/06/27 06:54:04;;;;;;;15.10;7.07;;;;;;;26.38;60.29;102028.03;5052714;28;20047;-69
2022/06/27 06:56:30;;;;;;;8.90;6.40;;;;;;;26.62;59.87;102065.22;5051756;28;20041;-67
2022/06/27 06:58:57;;;;;;;9.27;5.75;;;;;;;26.55;61.28;102059.00;5052368;28;20037;-69
2022/06/27 07:01:23;;;;;;;16.63;6.70;;;;;;;26.68;61.08;102077.06;5053139;28;20033;-67
2022/06/27 07:03:50;;;;;;;16.88;6.93;;;;;;;26.65;60.55;102061.16;5052445;28;20068;-70
2022/06/27 07:06:21;;;;;;;17.33;7.10;;;;;;;26.69;59.79;102074.09;5052640;28;20067;-71
2022/06/27 07:08:48;;;;;;;11.32;6.93;;;;;;;26.69;59.64;102068.63;5053097;28;20291;-69
2022/06/27 07:11:14;;;;;;;14.32;5.82;;;;;;;26.58;58.70;102066.72;5052899;28;20060;-68
2022/06/27 07:13:39;;;;;;;11.50;6.75;;;;;;;26.67;60.00;102072.69;5052465;28;20277;-67
2022/06/27 07:16:05;;;;;;;14.90;7.20;;;;;;;26.74;59.99;102076.13;5053144;28;20039;-68
2022/06/27 07:18:33;;;;;;;12.65;6.10;;;;;;;26.76;59.84;102080.28;5057941;28;20059;-67
2022/06/27 07:21:00;;;;;;;17.30;6.20;;;;;;;26.83;59.20;102078.25;5062748;28;20051;-67
2022/06/27 07:23:25;;;;;;;13.10;6.75;;;;;;;26.83;58.44;102075.50;5060211;28;20083;-69
2022/06/27 07:25:51;;;;;;;7.72;5.47;;;;;;;26.89;58.95;102083.81;5053584;28;20412;-70
2022/06/27 07:28:22;;;;;;;12.73;6.90;;;;;;;26.80;59.11;102069.69;5051325;28;20037;-69
2022/06/27 07:30:48;;;;;;;14.23;7.93;;;;;;;26.86;59.35;102077.75;5052658;28;20028;-68
2022/06/27 07:33:14;;;;;;;16.35;7.25;;;;;;;26.84;58.43;102082.63;5052281;28;20036;-67
2022/06/27 07:35:39;;;;;;;13.48;7.07;;;;;;;26.83;59.09;102080.16;5053169;28;20044;-68
2022/06/27 07:38:06;;;;;;;16.20;7.53;;;;;;;26.86;58.83;102083.22;5062533;28;20052;-65
2022/06/27 07:40:32;;;;;;;10.85;7.10;;;;;;;26.89;59.04;102078.34;5062600;28;20124;-67
2022/06/27 07:42:58;;;;;;;17.40;5.93;;;;;;;26.80;57.98;102070.53;5056673;28;20039;-69
2022/06/27 07:45:25;;;;;;;13.63;6.72;;;;;;;26.84;58.79;102068.97;5052336;28;20040;-71
2022/06/27 07:47:54;;;;;;;7.53;5.47;;;;;;;26.86;58.58;102064.09;5051946;28;20053;-69
2022/06/27 07:50:37;;;;;;;11.27;5.40;;;;;;;26.92;57.58;102076.00;5050728;28;20136;-70
2022/06/27 07:53:13;;;;;;;10.15;5.90;;;;;;;26.96;58.45;102068.16;5051823;28;20484;-66
2022/06/27 07:56:00;;;;;;;9.50;6.72;;;;;;;27.01;58.82;102071.00;5052111;28;20060;-70
2022/06/27 07:58:33;;;;;;;11.65;5.93;;;;;;;26.69;57.70;102038.59;5052169;28;20061;-69
2022/06/27 08:01:04;;;;;;;8.85;5.22;;;;;;;26.91;57.12;102077.06;5052004;28;20492;-68
2022/06/27 08:03:36;;;;;;;16.77;6.63;;;;;;;26.88;57.64;102082.97;5054324;28;20045;-68
2022/06/27 08:06:28;;;;;;;10.65;5.97;;;;;;;26.66;57.76;102039.06;5055460;28;20174;-67
2022/06/27 08:08:57;;;;;;;7.00;4.88;;;;;;;26.88;57.37;102082.97;5055865;28;20046;-67
2022/06/27 08:11:32;;;;;;;11.95;5.90;;;;;;;26.66;57.31;102058.19;5055455;28;20126;-66
2022/06/27 08:14:03;;;;;;;8.45;5.80;;;;;;;26.79;58.06;102073.50;5055253;28;20049;-69
2022/06/27 08:16:30;;;;;;;14.20;5.60;;;;;;;26.66;57.04;102050.00;5055580;28;20037;-71
2022/06/27 08:18:57;;;;;;;8.73;5.68;;;;;;;26.86;57.52;102072.28;5055542;28;20039;-70
2022/06/27 08:21:25;;;;;;;8.05;5.30;;;;;;;26.91;57.47;102076.25;5055530;28;20076;-68
2022/06/27 08:23:58;;;;;;;8.63;5.53;;;;;;;27.06;57.92;102082.88;5055973;28;20029;-68
2022/06/27 08:26:24;;;;;;;9.43;6.15;;;;;;;27.02;57.53;102064.47;5055626;28;20138;-68
2022/06/27 08:28:54;;;;;;;10.60;5.57;;;;;;;27.18;56.69;102082.88;5055390;28;20041;-67
2022/06/27 08:31:20;;;;;;;11.38;5.50;;;;;;;27.12;55.40;102081.09;5056532;28;20033;-69
2022/06/27 08:33:47;;;;;;;9.88;5.22;;;;;;;27.11;55.85;102071.22;5058221;28;20488;-68
2022/06/27 08:36:17;;;;;;;10.10;5.55;;;;;;;27.13;56.01;102069.06;5056732;28;20025;-72
2022/06/27 08:38:46;;;;;;;7.88;6.30;;;;;;;27.16;56.12;102076.78;5058100;28;20459;-70
2022/06/27 08:41:12;;;;;;;23.85;7.55;;;;;;;27.19;55.38;102079.06;5058504;28;20120;-71
2022/06/27 08:43:40;;;;;;;14.18;5.95;;;;;;;27.23;55.10;102080.25;5056895;28;20055;-70
2022/06/27 08:46:07;;;;;;;9.45;5.90;;;;;;;27.28;54.66;102083.09;5058615;28;20028;-69
2022/06/27 08:48:37;;;;;;;10.85;6.10;;;;;;;27.31;53.70;102082.59;5059152;28;20067;-69
2022/06/27 08:51:04;;;;;;;8.63;5.93;;;;;;;27.36;53.63;102087.34;5056636;28;20098;-68
2022/06/27 08:53:32;;;;;;;8.27;5.53;;;;;;;27.34;53.06;102076.63;5054649;28;20041;-70
2022/06/27 08:55:59;;;;;;;14.07;5.30;;;;;;;27.28;52.52;102072.16;5054588;28;20037;-72
2022/06/27 08:58:27;;;;;;;7.95;5.78;;;;;;;27.38;52.15;102085.19;5053691;28;20040;-68
2022/06/27 09:00:53;;;;;;;9.50;6.13;;;;;;;27.37;51.57;102081.63;5054606;28;20072;-68
2022/06/27 09:03:20;;;;;;;6.55;4.93;;;;;;;26.75;50.62;101973.94;5054401;28;20033;-69
2022/06/27 09:06:00;;;;;;;13.27;5.30;;;;;;;27.39;50.31;102076.72;5054527;28;20033;-71
2022/06/27 09:08:55;;;;;;;12.10;7.40;;;;;;;27.47;49.70;102075.53;5054039;28;20063;-70
2022/06/27 09:11:32;;;;;;;11.57;6.30;;;;;;;27.48;50.14;102069.00;5054571;28;20381;-71
2022/06/27 09:13:58;;;;;;;16.38;8.27;;;;;;;27.52;48.72;102061.13;5053905;28;20588;-72
2022/06/27 09:16:24;;;;;;;10.35;5.18;;;;;;;27.61;45.30;102070.59;5054242;28;20300;-71
2022/06/27 09:18:50;;;;;;;9.68;4.97;;;;;;;27.65;43.21;102066.31;5052894;28;20040;-69
2022/06/27 09:21:16;;;;;;;8.43;5.55;;;;;;;27.68;43.66;102065.84;5054148;28;20541;-68
2022/06/27 09:23:47;;;;;;;8.13;4.68;;;;;;;27.70;43.29;102063.69;5054332;28;20127;-69
2022/06/27 09:26:27;;;;;;;13.32;5.38;;;;;;;27.74;42.96;102070.31;5054280;28;20067;-67
2022/06/27 09:28:58;;;;;;;19.13;5.85;;;;;;;27.85;42.50;102077.66;5052839;28;20093;-70
2022/06/27 09:31:35;;;;;;;18.58;5.13;;;;;;;27.86;41.27;102073.84;5054047;28;20115;-69
2022/06/27 09:34:14;;;;;;;28.45;6.30;;;;;;;27.92;41.95;102072.84;5052804;28;20136;-68
2022/06/27 09:36:59;;;;;;;15.50;4.72;;;;;;;28.00;41.76;102077.09;5052957;28;20045;-68
2022/06/27 09:39:35;;;;;;;18.45;5.40;;;;;;;28.00;41.33;102086.13;5054063;28;20036;-71
2022/06/27 09:42:06;;;;;;;7.32;4.50;;;;;;;28.01;41.69;102084.22;5054093;28;20074;-67
2022/06/27 09:44:40;;;;;;;11.55;4.97;;;;;;;27.88;42.76;102058.00;5053900;28;20056;-70
2022/06/27 09:47:29;;;;;;;15.88;5.53;;;;;;;27.78;42.36;102044.13;5053708;28;20626;-70
2022/06/27 09:49:59;;;;;;;8.15;4.75;;;;;;;28.04;41.64;102079.06;5053707;28;20124;-69
2022/06/27 09:52:26;;;;;;;10.07;5.07;;;;;;;28.08;41.21;102091.22;5054142;28;20056;-71
2022/06/27 09:54:54;;;;;;;11.82;4.78;;;;;;;28.02;41.01;102083.97;5053726;28;20040;-65
2022/06/27 09:57:21;;;;;;;6.60;4.47;;;;;;;28.19;41.08;102094.13;5053844;28;20041;-70
2022/06/27 09:59:50;;;;;;;12.32;4.72;;;;;;;27.83;40.32;102041.50;5052277;28;20492;-65
2022/06/27 10:02:19;;;;;;;7.68;4.10;;;;;;;28.18;39.95;102093.28;5052377;28;20033;-74
2022/06/27 10:04:49;;;;;;;9.60;5.05;;;;;;;28.21;39.58;102091.97;5035618;28;20033;-67
2022/06/27 10:07:17;;;;;;;6.40;3.95;;;;;;;28.16;40.32;102083.66;5052863;28;20101;-65
2022/06/27 10:09:53;;;;;;;10.23;4.45;;;;;;;28.25;39.28;102104.13;5053391;28;20049;-70
2022/06/27 10:12:31;;;;;;;13.95;5.70;;;;;;;28.29;40.49;102103.38;5053487;28;20040;-63
2022/06/27 10:15:12;;;;;;;;;;;;;;;28.34;40.17;102102.66;5053962;28;20040;-65
2022/06/27 10:17:49;;;;;;;30.73;7.82;;;;;;;28.29;39.81;102086.09;5053889;28;19916;-64
2022/06/27 10:20:16;;;;;;;43.10;7.70;;;;;;;28.32;41.17;102082.84;5057948;28;20086;-76
2022/06/27 10:22:42;;;;;;;18.85;5.30;;;;;;;28.32;39.53;102083.69;5056997;28;20044;-67
2022/06/27 10:25:26;;;;;;;23.77;4.97;;;;;;;28.46;40.54;102095.16;5052657;28;20045;-72
2022/06/27 10:28:07;;;;;;;40.42;6.75;;;;;;;28.44;40.20;102088.28;5055047;28;20083;-68
2022/06/27 10:30:42;;;;;;;10.95;4.57;;;;;;;28.45;38.96;102092.66;5061005;28;20028;-72
2022/06/27 10:33:31;;;;;;;18.80;4.22;;;;;;;28.50;39.63;102085.34;5070618;28;20033;-72
2022/06/27 10:36:03;;;;;;;10.88;4.60;;;;;;;28.50;39.37;102085.34;5027170;28;20140;-69
2022/06/27 10:38:38;;;;;;;16.98;5.60;;;;;;;28.51;39.28;102087.00;5053583;28;20560;-71
2022/06/27 10:41:06;;;;;;;14.23;5.32;;;;;;;28.54;39.37;102086.50;5052675;28;20071;-73
2022/06/27 10:43:38;;;;;;;25.27;5.32;;;;;;;28.59;39.43;102083.00;5051214;28;20086;-64
2022/06/27 10:46:09;;;;;;;8.00;4.70;;;;;;;28.59;38.86;102072.88;5052393;28;20060;-67
2022/06/27 10:48:55;;;;;;;12.38;5.13;;;;;;;28.59;38.39;102078.34;5051528;28;20033;-70
2022/06/27 10:51:29;;;;;;;26.50;6.07;;;;;;;28.56;39.03;102078.03;5051480;28;20061;-67
2022/06/27 10:54:06;;;;;;;89.22;14.35;;;;;;;28.68;39.08;102076.03;5052559;28;20037;-67
2022/06/27 10:56:48;;;;;;;;;;;;;;;28.73;38.56;102080.78;5052777;28;20037;-67
2022/06/27 10:59:14;;;;;;;49.03;7.57;;;;;;;28.71;38.59;102074.72;5051063;28;20300;-66
2022/06/27 11:02:03;;;;;;;13.10;5.15;;;;;;;28.62;38.06;102072.41;5052028;28;20037;-67
2022/06/27 11:04:34;;;;;;;21.77;5.57;;;;;;;28.77;38.66;102079.19;5052425;28;20032;-64
2022/06/27 11:07:07;;;;;;;30.02;6.05;;;;;;;28.46;37.99;102037.63;5050774;28;20143;-65
2022/06/27 11:09:38;;;;;;;78.13;10.07;;;;;;;28.73;38.19;102078.03;5052458;28;20102;-66
2022/06/27 11:12:05;;;;;;;15.45;4.93;;;;;;;28.48;37.31;102027.22;5052164;28;20115;-68
2022/06/27 11:14:42;;;;;;;16.30;5.38;;;;;;;28.73;38.67;102064.31;5051970;28;20040;-65
2022/06/27 11:17:25;;;;;;;20.90;6.22;;;;;;;28.76;37.29;102056.41;5052255;28;20036;-66
2022/06/27 11:20:25;;;;;;;29.88;5.50;;;;;;;28.74;37.67;102053.09;5051945;28;20035;-66
2022/06/27 11:23:01;;;;;;;6.65;4.43;;;;;;;28.91;37.45;102075.00;5034396;28;20040;-63
2022/06/27 11:25:29;;;;;;;9.60;4.30;;;;;;;28.88;38.11;102054.41;5051825;28;20045;-65
2022/06/27 11:27:57;;;;;;;26.25;5.35;;;;;;;28.99;37.89;102066.38;5051761;28;20080;-63
2022/06/27 11:33:16;;;;;;;9.10;4.82;;;;;;;29.02;37.58;102049.41;5051665;28;20125;-66